Elk Creek, Virginia
Current Conditions -  °F | °C
As of 2:55 PM on Tuesday 21 Oct 2014 (Local Time) from KMKJ Reporting Station
Overcast Overcast  
Wind Chill: 56°   Ceiling: 5500
Heat Index: 56°   Visibility: 10mi
Dew Point: 40°   Wind: 13mph
Humidity: 55%   Direction: 270°W
Pressure: 29.95"   Gusts: 22mph
Location:  36.72°N, 81.18°W
Report Text: KMKJ 211855Z AUTO 27011G19KT 10SM OVC055 13/04 A2995 RMK AO2 T01320043
Loading
Personal Weather Stations






























Interactive Weather Map
Tropical Storm Tracking
New forecast layout! Learn more

10-Day Weather Forecast

Advertisements
Track Severe Weather on mobile